sensor_id;sensor_type;location;lat;lon;timestamp;pressure;altitude;pressure_sealevel;temperature;humidity
80502;BME280;70023;51.190;6.808;2023-05-10T00:00:45;100627.72;;;13.70;69.28
80502;BME280;70023;51.190;6.808;2023-05-10T00:01:31;100623.41;;;13.69;69.06
80502;BME280;70023;51.190;6.808;2023-05-10T00:02:17;100625.84;;;13.71;68.93
80502;BME280;70023;51.190;6.808;2023-05-10T00:03:03;100631.44;;;13.69;69.29
80502;BME280;70023;51.190;6.808;2023-05-10T00:03:49;100634.13;;;13.69;68.94
80502;BME280;70023;51.190;6.808;2023-05-10T00:04:36;100623.41;;;13.69;68.68
80502;BME280;70023;51.190;6.808;2023-05-10T00:05:22;100631.44;;;13.69;69.05
80502;BME280;70023;51.190;6.808;2023-05-10T00:06:08;100633.09;;;13.70;68.68
80502;BME280;70023;51.190;6.808;2023-05-10T00:06:54;100632.28;;;13.70;69.23
80502;BME280;70023;51.190;6.808;2023-05-10T00:07:40;100627.72;;;13.70;68.97
80502;BME280;70023;51.190;6.808;2023-05-10T00:08:29;100625.03;;;13.70;69.09
80502;BME280;70023;51.190;6.808;2023-05-10T00:09:15;100619.66;;;13.70;69.00
80502;BME280;70023;51.190;6.808;2023-05-10T00:10:01;100621.53;;;13.70;69.06
80502;BME280;70023;51.190;6.808;2023-05-10T00:10:47;100636.81;;;13.69;69.06
80502;BME280;70023;51.190;6.808;2023-05-10T00:11:34;100630.41;;;13.70;68.92
80502;BME280;70023;51.190;6.808;2023-05-10T00:12:20;100630.41;;;13.70;68.33
80502;BME280;70023;51.190;6.808;2023-05-10T00:13:06;100625.03;;;13.70;68.63
80502;BME280;70023;51.190;6.808;2023-05-10T00:13:52;100626.91;;;13.70;68.73
80502;BME280;70023;51.190;6.808;2023-05-10T00:14:39;100626.91;;;13.70;68.88
80502;BME280;70023;51.190;6.808;2023-05-10T00:15:25;100625.25;;;13.69;68.71
80502;BME280;70023;51.190;6.808;2023-05-10T00:16:11;100631.44;;;13.69;68.54
80502;BME280;70023;51.190;6.808;2023-05-10T00:16:58;100617.22;;;13.69;68.87
80502;BME280;70023;51.190;6.808;2023-05-10T00:17:44;100623.16;;;13.71;68.37
80502;BME280;70023;51.190;6.808;2023-05-10T00:18:30;100619.91;;;13.69;68.54
80502;BME280;70023;51.190;6.808;2023-05-10T00:19:16;100623.41;;;13.69;68.65
80502;BME280;70023;51.190;6.808;2023-05-10T00:20:02;100625.03;;;13.70;68.78
80502;BME280;70023;51.190;6.808;2023-05-10T00:20:49;100629.59;;;13.70;68.88
80502;BME280;70023;51.190;6.808;2023-05-10T00:21:35;100622.34;;;13.70;68.69
80502;BME280;70023;51.190;6.808;2023-05-10T00:22:21;100622.34;;;13.70;68.59
80502;BME280;70023;51.190;6.808;2023-05-10T00:23:08;100625.84;;;13.71;68.24
80502;BME280;70023;51.190;6.808;2023-05-10T00:23:54;100625.84;;;13.71;68.44
80502;BME280;70023;51.190;6.808;2023-05-10T00:24:42;100621.53;;;13.70;68.53
80502;BME280;70023;51.190;6.808;2023-05-10T00:25:28;100624.22;;;13.70;68.64
80502;BME280;70023;51.190;6.808;2023-05-10T00:26:14;100635.78;;;13.70;68.29
80502;BME280;70023;51.190;6.808;2023-05-10T00:27:01;100631.22;;;13.71;68.65
80502;BME280;70023;51.190;6.808;2023-05-10T00:27:48;100630.41;;;13.70;68.73
80502;BME280;70023;51.190;6.808;2023-05-10T00:28:34;100622.34;;;13.70;68.65
80502;BME280;70023;51.190;6.808;2023-05-10T00:29:20;100618.03;;;13.69;68.23
80502;BME280;70023;51.190;6.808;2023-05-10T00:30:07;100627.94;;;13.69;68.23
80502;BME280;70023;51.190;6.808;2023-05-10T00:30:54;100630.63;;;13.69;68.66
80502;BME280;70023;51.190;6.808;2023-05-10T00:31:40;100615.59;;;13.68;68.22
80502;BME280;70023;51.190;6.808;2023-05-10T00:32:26;100619.13;;;13.68;68.50
80502;BME280;70023;51.190;6.808;2023-05-10T00:33:12;100629.84;;;13.68;68.16
80502;BME280;70023;51.190;6.808;2023-05-10T00:33:58;100624.47;;;13.68;68.48
80502;BME280;70023;51.190;6.808;2023-05-10T00:34:44;100621.78;;;13.68;68.30
80502;BME280;70023;51.190;6.808;2023-05-10T00:35:30;100617.47;;;13.67;67.69
80502;BME280;70023;51.190;6.808;2023-05-10T00:36:17;100620.97;;;13.68;68.00
80502;BME280;70023;51.190;6.808;2023-05-10T00:37:03;100629.84;;;13.68;68.50
80502;BME280;70023;51.190;6.808;2023-05-10T00:37:49;100619.13;;;13.68;68.50
80502;BME280;70023;51.190;6.808;2023-05-10T00:38:35;100619.91;;;13.69;68.05
80502;BME280;70023;51.190;6.808;2023-05-10T00:39:21;100612.66;;;13.69;68.36
80502;BME280;70023;51.190;6.808;2023-05-10T00:40:07;100618.03;;;13.69;68.24
80502;BME280;70023;51.190;6.808;2023-05-10T00:40:54;100623.41;;;13.69;68.46
80502;BME280;70023;51.190;6.808;2023-05-10T00:41:40;100615.34;;;13.69;68.09
80502;BME280;70023;51.190;6.808;2023-05-10T00:42:26;100614.53;;;13.69;68.29
80502;BME280;70023;51.190;6.808;2023-05-10T00:43:12;100620.72;;;13.69;67.94
80502;BME280;70023;51.190;6.808;2023-05-10T00:43:58;100614.53;;;13.69;68.37
80502;BME280;70023;51.190;6.808;2023-05-10T00:44:45;100620.72;;;13.69;68.39
80502;BME280;70023;51.190;6.808;2023-05-10T00:45:32;100616.16;;;13.70;68.24
80502;BME280;70023;51.190;6.808;2023-05-10T00:46:18;100613.47;;;13.70;67.98
80502;BME280;70023;51.190;6.808;2023-05-10T00:47:04;100624.22;;;13.70;68.26
80502;BME280;70023;51.190;6.808;2023-05-10T00:47:51;100615.34;;;13.69;68.27
80502;BME280;70023;51.190;6.808;2023-05-10T00:48:39;100613.47;;;13.70;67.81
80502;BME280;70023;51.190;6.808;2023-05-10T00:49:26;100620.72;;;13.69;68.17
80502;BME280;70023;51.190;6.808;2023-05-10T00:50:12;100622.34;;;13.70;67.97
80502;BME280;70023;51.190;6.808;2023-05-10T00:51:00;100619.66;;;13.70;68.10
80502;BME280;70023;51.190;6.808;2023-05-10T00:51:46;100618.84;;;13.70;68.25
80502;BME280;70023;51.190;6.808;2023-05-10T00:52:33;100626.91;;;13.70;68.06
80502;BME280;70023;51.190;6.808;2023-05-10T00:53:19;100615.34;;;13.69;67.83
80502;BME280;70023;51.190;6.808;2023-05-10T00:54:05;100625.03;;;13.70;68.29
80502;BME280;70023;51.190;6.808;2023-05-10T00:54:52;100620.72;;;13.69;68.38
80502;BME280;70023;51.190;6.808;2023-05-10T00:55:39;100630.63;;;13.69;68.23
80502;BME280;70023;51.190;6.808;2023-05-10T00:56:25;100618.03;;;13.69;67.84
80502;BME280;70023;51.190;6.808;2023-05-10T00:57:13;100621.53;;;13.70;68.01
80502;BME280;70023;51.190;6.808;2023-05-10T00:57:59;100623.41;;;13.69;68.15
80502;BME280;70023;51.190;6.808;2023-05-10T00:58:46;100628.75;;;13.69;67.63
80502;BME280;70023;51.190;6.808;2023-05-10T00:59:32;100619.13;;;13.68;67.76
80502;BME280;70023;51.190;6.808;2023-05-10T01:00:18;100630.63;;;13.69;67.84
80502;BME280;70023;51.190;6.808;2023-05-10T01:01:05;100633.31;;;13.69;68.14
80502;BME280;70023;51.190;6.808;2023-05-10T01:01:52;100629.03;;;13.68;67.91
80502;BME280;70023;51.190;6.808;2023-05-10T01:02:38;100632.53;;;13.68;68.18
80502;BME280;70023;51.190;6.808;2023-05-10T01:03:26;100629.03;;;13.68;68.10
80502;BME280;70023;51.190;6.808;2023-05-10T01:04:13;100633.56;;;13.67;67.60
80502;BME280;70023;51.190;6.808;2023-05-10T01:05:00;100634.38;;;13.68;68.05
80502;BME280;70023;51.190;6.808;2023-05-10T01:05:48;100627.38;;;13.67;67.94
80502;BME280;70023;51.190;6.808;2023-05-10T01:06:35;100626.56;;;13.66;68.01
80502;BME280;70023;51.190;6.808;2023-05-10T01:07:21;100634.63;;;13.66;67.91
80502;BME280;70023;51.190;6.808;2023-05-10T01:08:08;100625.78;;;13.66;67.83
80502;BME280;70023;51.190;6.808;2023-05-10T01:08:54;100625.19;;;13.64;67.80
80502;BME280;70023;51.190;6.808;2023-05-10T01:09:41;100632.19;;;13.65;68.25
80502;BME280;70023;51.190;6.808;2023-05-10T01:10:27;100627.88;;;13.64;68.13
80502;BME280;70023;51.190;6.808;2023-05-10T01:11:13;100631.63;;;13.63;67.83
80502;BME280;70023;51.190;6.808;2023-05-10T01:12:00;100628.13;;;13.62;68.17
80502;BME280;70023;51.190;6.808;2023-05-10T01:12:46;100632.94;;;13.60;68.13
80502;BME280;70023;51.190;6.808;2023-05-10T01:13:36;100626.50;;;13.61;67.84
80502;BME280;70023;51.190;6.808;2023-05-10T01:14:24;100635.63;;;13.60;67.82
80502;BME280;70023;51.190;6.808;2023-05-10T01:15:11;100630.50;;;13.59;67.73
80502;BME280;70023;51.190;6.808;2023-05-10T01:15:59;100635.88;;;13.59;68.27
80502;BME280;70023;51.190;6.808;2023-05-10T01:16:48;100634.25;;;13.58;67.63
80502;BME280;70023;51.190;6.808;2023-05-10T01:17:35;100637.75;;;13.58;67.90
80502;BME280;70023;51.190;6.808;2023-05-10T01:18:24;100637.97;;;13.57;68.53
80502;BME280;70023;51.190;6.808;2023-05-10T01:19:34;100635.53;;;13.55;67.87
80502;BME280;70023;51.190;6.808;2023-05-10T01:20:19;100637.41;;;13.55;68.25
80502;BME280;70023;51.190;6.808;2023-05-10T01:32:35;100640.94;;;13.39;68.39
80502;BME280;70023;51.190;6.808;2023-05-10T01:33:30;100644.91;;;13.36;68.87
80502;BME280;70023;51.190;6.808;2023-05-10T01:34:25;100645.13;;;13.35;68.18
80502;BME280;70023;51.190;6.808;2023-05-10T01:35:39;100640.59;;;13.35;68.41
80502;BME280;70023;51.190;6.808;2023-05-10T01:38:43;100641.09;;;13.32;68.19
80502;BME280;70023;51.190;6.808;2023-05-10T01:39:45;100641.31;;;13.30;68.87
80502;BME280;70023;51.190;6.808;2023-05-10T01:40:42;100636.78;;;13.31;68.75
80502;BME280;70023;51.190;6.808;2023-05-10T01:41:55;100641.31;;;13.30;68.81
80502;BME280;70023;51.190;6.808;2023-05-10T01:42:52;100641.31;;;13.30;68.64
80502;BME280;70023;51.190;6.808;2023-05-10T01:44:25;100641.59;;;13.29;68.76
80502;BME280;70023;51.190;6.808;2023-05-10T01:45:00;100640.50;;;13.30;68.63
80502;BME280;70023;51.190;6.808;2023-05-10T01:46:09;100645.88;;;13.30;68.78
80502;BME280;70023;51.190;6.808;2023-05-10T01:47:07;100642.41;;;13.29;69.05
80502;BME280;70023;51.190;6.808;2023-05-10T01:48:05;100645.88;;;13.30;68.58
80502;BME280;70023;51.190;6.808;2023-05-10T01:48:57;100645.88;;;13.30;68.90
80502;BME280;70023;51.190;6.808;2023-05-10T01:49:47;100640.75;;;13.28;68.53
80502;BME280;70023;51.190;6.808;2023-05-10T01:50:36;100644.25;;;13.29;68.25
80502;BME280;70023;51.190;6.808;2023-05-10T01:51:25;100647.75;;;13.29;68.07
80502;BME280;70023;51.190;6.808;2023-05-10T01:52:15;100644.50;;;13.27;68.33
80502;BME280;70023;51.190;6.808;2023-05-10T01:53:06;100645.31;;;13.28;68.15
80502;BME280;70023;51.190;6.808;2023-05-10T01:53:54;100632.16;;;13.26;68.80
80502;BME280;70023;51.190;6.808;2023-05-10T01:54:49;100643.09;;;13.25;68.46
80502;BME280;70023;51.190;6.808;2023-05-10T01:55:46;100647.69;;;13.24;67.96
80502;BME280;70023;51.190;6.808;2023-05-10T01:56:34;100643.34;;;13.23;68.44
80502;BME280;70023;51.190;6.808;2023-05-10T01:57:22;100640.94;;;13.22;68.17
80502;BME280;70023;51.190;6.808;2023-05-10T01:58:15;100645.47;;;13.21;68.43
80502;BME280;70023;51.190;6.808;2023-05-10T01:59:09;100640.13;;;13.21;69.09
80502;BME280;70023;51.190;6.808;2023-05-10T02:00:01;100646.53;;;13.20;68.41
80502;BME280;70023;51.190;6.808;2023-05-10T02:00:51;100652.13;;;13.19;68.42
80502;BME280;70023;51.190;6.808;2023-05-10T02:01:38;100654.25;;;13.17;68.66
80502;BME280;70023;51.190;6.808;2023-05-10T02:02:26;100653.19;;;13.18;68.35
80502;BME280;70023;51.190;6.808;2023-05-10T02:03:14;100653.19;;;13.18;68.67
80502;BME280;70023;51.190;6.808;2023-05-10T02:04:01;100654.25;;;13.17;68.17
80502;BME280;70023;51.190;6.808;2023-05-10T02:04:47;100641.88;;;13.16;68.36
80502;BME280;70023;51.190;6.808;2023-05-10T02:05:36;100650.75;;;13.16;68.12
80502;BME280;70023;51.190;6.808;2023-05-10T02:06:23;100648.06;;;13.16;68.21
80502;BME280;70023;51.190;6.808;2023-05-10T02:07:10;100647.25;;;13.16;68.59
80502;BME280;70023;51.190;6.808;2023-05-10T02:07:57;100652.63;;;13.16;68.87
80502;BME280;70023;51.190;6.808;2023-05-10T02:08:46;100645.41;;;13.16;68.70
80502;BME280;70023;51.190;6.808;2023-05-10T02:09:34;100653.44;;;13.16;68.23
80502;BME280;70023;51.190;6.808;2023-05-10T02:10:21;100650.75;;;13.16;68.49
80502;BME280;70023;51.190;6.808;2023-05-10T02:11:07;100648.06;;;13.16;68.69
80502;BME280;70023;51.190;6.808;2023-05-10T02:11:54;100647.03;;;13.17;68.31
80502;BME280;70023;51.190;6.808;2023-05-10T02:12:42;100646.22;;;13.17;68.82
80502;BME280;70023;51.190;6.808;2023-05-10T02:13:30;100644.34;;;13.17;68.79
80502;BME280;70023;51.190;6.808;2023-05-10T02:14:19;100638.16;;;13.17;68.89
80502;BME280;70023;51.190;6.808;2023-05-10T02:15:06;100643.53;;;13.17;68.38
80502;BME280;70023;51.190;6.808;2023-05-10T02:15:53;100646.22;;;13.17;68.11
80502;BME280;70023;51.190;6.808;2023-05-10T02:16:41;100645.13;;;13.18;68.03
80502;BME280;70023;51.190;6.808;2023-05-10T02:17:30;100655.06;;;13.17;68.24
80502;BME280;70023;51.190;6.808;2023-05-10T02:18:18;100647.81;;;13.18;68.61
80502;BME280;70023;51.190;6.808;2023-05-10T02:19:04;100652.38;;;13.17;68.01
80502;BME280;70023;51.190;6.808;2023-05-10T02:19:51;100656.94;;;13.17;68.26
80502;BME280;70023;51.190;6.808;2023-05-10T02:20:38;100651.56;;;13.17;67.87
80502;BME280;70023;51.190;6.808;2023-05-10T02:21:25;100648.88;;;13.17;68.62
80502;BME280;70023;51.190;6.808;2023-05-10T02:22:12;100655.06;;;13.17;68.33
80502;BME280;70023;51.190;6.808;2023-05-10T02:22:59;100661.22;;;13.18;67.80
80502;BME280;70023;51.190;6.808;2023-05-10T02:23:47;100659.63;;;13.17;67.71
80502;BME280;70023;51.190;6.808;2023-05-10T02:24:35;100657.75;;;13.17;68.42
80502;BME280;70023;51.190;6.808;2023-05-10T02:25:23;100656.94;;;13.17;67.76
80502;BME280;70023;51.190;6.808;2023-05-10T02:26:10;100664.97;;;13.17;68.32
80502;BME280;70023;51.190;6.808;2023-05-10T02:26:58;100663.13;;;13.17;68.17
80502;BME280;70023;51.190;6.808;2023-05-10T02:27:47;100663.13;;;13.17;68.15
80502;BME280;70023;51.190;6.808;2023-05-10T02:28:34;100661.47;;;13.16;68.14
80502;BME280;70023;51.190;6.808;2023-05-10T02:29:23;100656.13;;;13.16;68.38
80502;BME280;70023;51.190;6.808;2023-05-10T02:30:12;100659.63;;;13.17;68.75
80502;BME280;70023;51.190;6.808;2023-05-10T02:30:59;100660.66;;;13.16;67.71
80502;BME280;70023;51.190;6.808;2023-05-10T02:31:47;100663.34;;;13.16;67.98
80502;BME280;70023;51.190;6.808;2023-05-10T02:32:35;100664.16;;;13.16;67.95
80502;BME280;70023;51.190;6.808;2023-05-10T02:33:22;100662.53;;;13.15;68.11
80502;BME280;70023;51.190;6.808;2023-05-10T02:34:12;100664.16;;;13.16;68.48
80502;BME280;70023;51.190;6.808;2023-05-10T02:34:59;100666.84;;;13.16;67.73
80502;BME280;70023;51.190;6.808;2023-05-10T02:35:48;100662.53;;;13.15;68.24
80502;BME280;70023;51.190;6.808;2023-05-10T02:36:35;100666.84;;;13.16;67.97
80502;BME280;70023;51.190;6.808;2023-05-10T02:37:23;100672.19;;;13.16;67.58
80502;BME280;70023;51.190;6.808;2023-05-10T02:38:10;100668.69;;;13.16;68.04
80502;BME280;70023;51.190;6.808;2023-05-10T02:38:58;100673.03;;;13.17;67.84
80502;BME280;70023;51.190;6.808;2023-05-10T02:39:54;100673.25;;;13.15;67.95
80502;BME280;70023;51.190;6.808;2023-05-10T02:40:41;100677.56;;;13.16;67.63
80502;BME280;70023;51.190;6.808;2023-05-10T02:41:30;100665.81;;;13.17;67.76
80502;BME280;70023;51.190;6.808;2023-05-10T02:42:18;100674.88;;;13.16;67.50
80502;BME280;70023;51.190;6.808;2023-05-10T02:43:07;100668.69;;;13.16;68.30
80502;BME280;70023;51.190;6.808;2023-05-10T02:43:59;100668.47;;;13.17;67.71
80502;BME280;70023;51.190;6.808;2023-05-10T02:44:48;100670.34;;;13.17;68.07
80502;BME280;70023;51.190;6.808;2023-05-10T02:45:35;100671.94;;;13.18;67.80
80502;BME280;70023;51.190;6.808;2023-05-10T02:46:23;100670.09;;;13.18;67.45
80502;BME280;70023;51.190;6.808;2023-05-10T02:47:10;100667.41;;;13.18;68.28
80502;BME280;70023;51.190;6.808;2023-05-10T02:47:56;100669.28;;;13.18;67.45
80502;BME280;70023;51.190;6.808;2023-05-10T02:48:43;100667.41;;;13.18;67.84
80502;BME280;70023;51.190;6.808;2023-05-10T02:49:29;100670.09;;;13.18;67.51
80502;BME280;70023;51.190;6.808;2023-05-10T02:50:15;100672.75;;;13.18;67.94
80502;BME280;70023;51.190;6.808;2023-05-10T02:51:03;100673.59;;;13.19;67.76
80502;BME280;70023;51.190;6.808;2023-05-10T02:51:55;100670.09;;;13.18;67.50
80502;BME280;70023;51.190;6.808;2023-05-10T02:52:46;100673.59;;;13.19;67.50
80502;BME280;70023;51.190;6.808;2023-05-10T02:53:36;100672.75;;;13.18;67.38
80502;BME280;70023;51.190;6.808;2023-05-10T02:54:27;100674.41;;;13.19;67.41
80502;BME280;70023;51.190;6.808;2023-05-10T02:55:16;100668.22;;;13.19;67.95
80502;BME280;70023;51.190;6.808;2023-05-10T02:56:12;100673.59;;;13.19;68.02
80502;BME280;70023;51.190;6.808;2023-05-10T02:57:03;100667.41;;;13.18;67.78
80502;BME280;70023;51.190;6.808;2023-05-10T02:57:51;100670.91;;;13.19;67.31
80502;BME280;70023;51.190;6.808;2023-05-10T02:58:43;100665.53;;;13.19;67.57
80502;BME280;70023;51.190;6.808;2023-05-10T02:59:29;100664.72;;;13.18;67.69
80502;BME280;70023;51.190;6.808;2023-05-10T03:00:15;100665.81;;;13.17;68.11
80502;BME280;70023;51.190;6.808;2023-05-10T03:01:03;100671.16;;;13.17;67.60
80502;BME280;70023;51.190;6.808;2023-05-10T03:01:49;100663.13;;;13.17;67.65
80502;BME280;70023;51.190;6.808;2023-05-10T03:02:35;100671.16;;;13.17;67.74
80502;BME280;70023;51.190;6.808;2023-05-10T03:03:21;100667.66;;;13.17;67.96
80502;BME280;70023;51.190;6.808;2023-05-10T03:04:07;100673.84;;;13.17;67.71
80502;BME280;70023;51.190;6.808;2023-05-10T03:04:53;100674.88;;;13.16;67.59
80502;BME280;70023;51.190;6.808;2023-05-10T03:05:39;100678.38;;;13.17;67.96
80502;BME280;70023;51.190;6.808;2023-05-10T03:06:28;100674.88;;;13.16;67.38
80502;BME280;70023;51.190;6.808;2023-05-10T03:07:14;100673.03;;;13.17;68.11
80502;BME280;70023;51.190;6.808;2023-05-10T03:08:01;100678.38;;;13.17;68.28
80502;BME280;70023;51.190;6.808;2023-05-10T03:08:49;100674.06;;;13.16;67.55
80502;BME280;70023;51.190;6.808;2023-05-10T03:09:35;100674.88;;;13.16;67.63
80502;BME280;70023;51.190;6.808;2023-05-10T03:10:27;100679.44;;;13.16;67.88
80502;BME280;70023;51.190;6.808;2023-05-10T03:11:16;100676.75;;;13.16;68.26
80502;BME280;70023;51.190;6.808;2023-05-10T03:14:30;100674.06;;;13.16;67.41
80502;BME280;70023;51.190;6.808;2023-05-10T03:15:45;100676.75;;;13.16;67.72
80502;BME280;70023;51.190;6.808;2023-05-10T03:16:41;100676.75;;;13.16;67.50
80502;BME280;70023;51.190;6.808;2023-05-10T03:17:49;100675.94;;;13.15;67.48
80502;BME280;70023;51.190;6.808;2023-05-10T03:22:03;100675.13;;;13.15;68.33
80502;BME280;70023;51.190;6.808;2023-05-10T03:23:04;100677.22;;;13.13;67.64
80502;BME280;70023;51.190;6.808;2023-05-10T03:24:11;100679.69;;;13.14;67.94
80502;BME280;70023;51.190;6.808;2023-05-10T03:25:00;100679.91;;;13.13;68.27
80502;BME280;70023;51.190;6.808;2023-05-10T03:25:50;100675.34;;;13.13;68.00
80502;BME280;70023;51.190;6.808;2023-05-10T03:26:37;100671.84;;;13.13;67.91
80502;BME280;70023;51.190;6.808;2023-05-10T03:27:23;100675.63;;;13.12;68.13
80502;BME280;70023;51.190;6.808;2023-05-10T03:28:12;100679.13;;;13.12;68.45
80502;BME280;70023;51.190;6.808;2023-05-10T03:28:59;100680.16;;;13.11;68.34
80502;BME280;70023;51.190;6.808;2023-05-10T03:29:46;100680.16;;;13.11;67.98
80502;BME280;70023;51.190;6.808;2023-05-10T03:30:32;100687.38;;;13.11;67.66
80502;BME280;70023;51.190;6.808;2023-05-10T03:31:20;100677.72;;;13.10;67.60
80502;BME280;70023;51.190;6.808;2023-05-10T03:32:06;100687.38;;;13.11;68.23
80502;BME280;70023;51.190;6.808;2023-05-10T03:32:53;100685.78;;;13.10;67.66
80502;BME280;70023;51.190;6.808;2023-05-10T03:33:49;100680.41;;;13.10;67.74
80502;BME280;70023;51.190;6.808;2023-05-10T03:34:40;100682.28;;;13.09;67.82
80502;BME280;70023;51.190;6.808;2023-05-10T03:35:28;100686.81;;;13.09;67.97
80502;BME280;70023;51.190;6.808;2023-05-10T03:36:14;100691.13;;;13.10;68.44
80502;BME280;70023;51.190;6.808;2023-05-10T03:37:00;100680.41;;;13.10;67.63
80502;BME280;70023;51.190;6.808;2023-05-10T03:37:46;100688.44;;;13.10;67.88
80502;BME280;70023;51.190;6.808;2023-05-10T03:38:32;100695.44;;;13.11;68.43
80502;BME280;70023;51.190;6.808;2023-05-10T03:39:18;100687.38;;;13.11;67.65
80502;BME280;70023;51.190;6.808;2023-05-10T03:40:06;100686.56;;;13.10;67.62
80502;BME280;70023;51.190;6.808;2023-05-10T03:40:53;100692.75;;;13.11;68.34
80502;BME280;70023;51.190;6.808;2023-05-10T03:41:39;100701.59;;;13.11;67.88
80502;BME280;70023;51.190;6.808;2023-05-10T03:42:25;100693.56;;;13.11;67.82
80502;BME280;70023;51.190;6.808;2023-05-10T03:43:11;100696.25;;;13.11;67.92
80502;BME280;70023;51.190;6.808;2023-05-10T03:43:57;100699.75;;;13.12;67.88
80502;BME280;70023;51.190;6.808;2023-05-10T03:44:43;100698.66;;;13.13;68.63
80502;BME280;70023;51.190;6.808;2023-05-10T03:45:29;100692.53;;;13.12;67.49
80502;BME280;70023;51.190;6.808;2023-05-10T03:46:15;100702.16;;;13.13;68.15
80502;BME280;70023;51.190;6.808;2023-05-10T03:47:01;100697.63;;;13.14;67.38
80502;BME280;70023;51.190;6.808;2023-05-10T03:47:47;100694.94;;;13.14;67.55
80502;BME280;70023;51.190;6.808;2023-05-10T03:48:33;100694.13;;;13.13;67.70
80502;BME280;70023;51.190;6.808;2023-05-10T03:49:19;100693.31;;;13.13;67.70
80502;BME280;70023;51.190;6.808;2023-05-10T03:50:06;100694.94;;;13.14;67.52
80502;BME280;70023;51.190;6.808;2023-05-10T03:50:52;100694.94;;;13.14;67.64
80502;BME280;70023;51.190;6.808;2023-05-10T03:51:38;100698.44;;;13.14;67.65
80502;BME280;70023;51.190;6.808;2023-05-10T03:52:24;100695.75;;;13.14;67.39
80502;BME280;70023;51.190;6.808;2023-05-10T03:53:10;100699.28;;;13.15;68.05
80502;BME280;70023;51.190;6.808;2023-05-10T03:53:57;100701.94;;;13.15;67.67
80502;BME280;70023;51.190;6.808;2023-05-10T03:54:43;100694.69;;;13.15;68.12
80502;BME280;70023;51.190;6.808;2023-05-10T03:55:29;100694.69;;;13.15;67.83
80502;BME280;70023;51.190;6.808;2023-05-10T03:56:19;100701.69;;;13.16;67.81
80502;BME280;70023;51.190;6.808;2023-05-10T03:57:05;100701.69;;;13.16;67.42
80502;BME280;70023;51.190;6.808;2023-05-10T03:57:51;100700.88;;;13.16;68.16
80502;BME280;70023;51.190;6.808;2023-05-10T03:58:38;100706.00;;;13.17;67.60
80502;BME280;70023;51.190;6.808;2023-05-10T03:59:24;100706.00;;;13.17;67.76
80502;BME280;70023;51.190;6.808;2023-05-10T04:00:11;100705.75;;;13.19;67.89
80502;BME280;70023;51.190;6.808;2023-05-10T04:00:57;100702.25;;;13.18;68.10
80502;BME280;70023;51.190;6.808;2023-05-10T04:01:43;100708.44;;;13.19;67.33
80502;BME280;70023;51.190;6.808;2023-05-10T04:02:29;100706.59;;;13.19;67.78
80502;BME280;70023;51.190;6.808;2023-05-10T04:03:15;100697.72;;;13.19;67.34
80502;BME280;70023;51.190;6.808;2023-05-10T04:04:02;100702.81;;;13.20;68.01
80502;BME280;70023;51.190;6.808;2023-05-10T04:04:48;100700.97;;;13.21;67.69
80502;BME280;70023;51.190;6.808;2023-05-10T04:05:34;100700.16;;;13.20;67.62
80502;BME280;70023;51.190;6.808;2023-05-10T04:06:20;100709.81;;;13.21;68.19
80502;BME280;70023;51.190;6.808;2023-05-10T04:07:06;100705.28;;;13.22;67.81
80502;BME280;70023;51.190;6.808;2023-05-10T04:07:52;100703.41;;;13.22;67.60
80502;BME280;70023;51.190;6.808;2023-05-10T04:08:38;100704.22;;;13.23;68.16
80502;BME280;70023;51.190;6.808;2023-05-10T04:09:24;100706.91;;;13.23;67.46
80502;BME280;70023;51.190;6.808;2023-05-10T04:10:11;100712.03;;;13.24;68.18
80502;BME280;70023;51.190;6.808;2023-05-10T04:11:06;100701.31;;;13.24;67.57
80502;BME280;70023;51.190;6.808;2023-05-10T04:11:53;100705.84;;;13.24;67.63
80502;BME280;70023;51.190;6.808;2023-05-10T04:12:39;100706.66;;;13.24;67.85
80502;BME280;70023;51.190;6.808;2023-05-10T04:13:25;100706.41;;;13.26;67.79
80502;BME280;70023;51.190;6.808;2023-05-10T04:14:11;100711.78;;;13.26;67.99
80502;BME280;70023;51.190;6.808;2023-05-10T04:14:57;100707.25;;;13.26;67.67
80502;BME280;70023;51.190;6.808;2023-05-10T04:15:43;100707.25;;;13.26;67.41
80502;BME280;70023;51.190;6.808;2023-05-10T04:16:32;100711.78;;;13.26;67.41
80502;BME280;70023;51.190;6.808;2023-05-10T04:17:18;100705.38;;;13.27;67.65
80502;BME280;70023;51.190;6.808;2023-05-10T04:18:04;100704.56;;;13.26;67.78
80502;BME280;70023;51.190;6.808;2023-05-10T04:18:50;100706.97;;;13.28;67.66
80502;BME280;70023;51.190;6.808;2023-05-10T04:19:36;100707.81;;;13.28;67.75
80502;BME280;70023;51.190;6.808;2023-05-10T04:20:23;100708.63;;;13.29;67.83
80502;BME280;70023;51.190;6.808;2023-05-10T04:21:12;100708.38;;;13.30;67.65
80502;BME280;70023;51.190;6.808;2023-05-10T04:21:59;100708.38;;;13.30;67.27
80502;BME280;70023;51.190;6.808;2023-05-10T04:22:46;100714.31;;;13.32;68.25
80502;BME280;70023;51.190;6.808;2023-05-10T04:23:32;100710.00;;;13.32;67.53
80502;BME280;70023;51.190;6.808;2023-05-10T04:24:18;100701.72;;;13.33;67.68
80502;BME280;70023;51.190;6.808;2023-05-10T04:25:05;100704.38;;;13.33;67.91
80502;BME280;70023;51.190;6.808;2023-05-10T04:26:00;100705.22;;;13.34;68.06
80502;BME280;70023;51.190;6.808;2023-05-10T04:26:47;100708.72;;;13.34;67.75
80502;BME280;70023;51.190;6.808;2023-05-10T04:27:33;100706.81;;;13.35;67.92
80502;BME280;70023;51.190;6.808;2023-05-10T04:28:19;100707.41;;;13.37;67.72
80502;BME280;70023;51.190;6.808;2023-05-10T04:29:06;100703.91;;;13.36;67.88
80502;BME280;70023;51.190;6.808;2023-05-10T04:29:52;100699.38;;;13.37;67.55
80502;BME280;70023;51.190;6.808;2023-05-10T04:30:39;100700.97;;;13.38;67.90
80502;BME280;70023;51.190;6.808;2023-05-10T04:31:25;100701.78;;;13.38;67.66
80502;BME280;70023;51.190;6.808;2023-05-10T04:32:12;100709.03;;;13.38;68.11